Soperton, GA

02:37 PM EDT on أعس×س 27, 2016 (GMT -0400)
South Treutlen Co. | | Change Station

Elev 236 ft 32.32 °N, 82.60 °W | Updated 13 seconds ago

Scattered Clouds
غيوم متفرقة
96.2 °F
Feels Like 100 °F
N
0.0
ريح متغير ريح from شمال
Gusts 11.0 mph

هذا اليوم
High -- | Low -- °F
--% Chance of Precip.
Yesterday
High -- | Low -- °F
Precip. -- في
الضغط 30.05 في
وضوح الرؤية 10.0 أميال
سحابات غيوم متفرقة 6000 ft
مؤشر الحرارة 100 °F
نقطة الندى 66 °F
الرطوبة 38%
Rainfall 0.00 في
عمق الثلج Not available.
7:02 AM 8:00 PM
الهلال الأخير, 22% visible
METAR KVDI 271815Z AUTO 11003KT 10SM SCT060 33/22 A3005 RMK AO2
الضغط 30.05 في
وضوح الرؤية 10.0 أميال
سحابات غيوم متفرقة 6000 ft
مؤشر الحرارة 100 °F
نقطة الندى 66 °F
الرطوبة 38%
Rainfall 0.00 في
عمق الثلج Not available.
7:02 AM 8:00 PM
الهلال الأخير, 22% visible
METAR KVDI 271815Z AUTO 11003KT 10SM SCT060 33/22 A3005 RMK AO2

10-Day Weather Forecast

Almanac

علم الفلك

Aug. 27, 2016 Rise Set
Actual Time
Civil Twilight
Nautical Twilight
Astronomical Twilight
قمر
Length Of Visible Light
طول الیوم
Tomorrow will be .
, % of the Moon is Illuminated

Today's Extremes

State Highs State Lows

Community

WunderPhotos

Upload Photos

1,935,396 photos uploaded!

WunderBlog® & News

Nearby

جودة الهواء

  جودة الهواء AQ Index Pollutant
Not available.

عمق الثلج

Station Depth Elevation

Earthquake Activity

City Distance Mag. Time & Date
Minimum magnitude displayed is 2.5.

Coastal Water Temperatures

مكان درجات الحرارة

Stations

Nearby Weather Stations

Station Location الحرارة رياح باردة نقطة الندى الرطوبة ريح Precip. Elev تحديث Type
                   

Watches & Warnings

There are currently no watches in effect.